EST,Max TemperatureF,Mean TemperatureF,Min TemperatureF,Max Dew PointF,MeanDew PointF,Min DewpointF,Max Humidity, Mean Humidity, Min Humidity, Max Sea Level PressureIn, Mean Sea Level PressureIn, Min Sea Level PressureIn, Max VisibilityMiles, Mean VisibilityMiles, Min VisibilityMiles, Max Wind SpeedMPH, Mean Wind SpeedMPH, Max Gust SpeedMPH,PrecipitationIn, CloudCover, Events, WindDirDegrees
2013-2-1,28,24,21,14,10,3,68,54,34,30.25,29.98,29.80,,,,12,6,23,0.17,,,292
2013-2-2,24,20,15,18,10,4,89,66,46,30.31,30.20,30.06,,,,10,5,17,0.06,,,220
2013-2-3,27,22,16,18,16,13,89,81,63,30.04,29.91,29.83,,,,6,1,,0.08,,,305
2013-2-4,28,24,19,15,9,6,72,54,41,29.99,29.95,29.85,,,,10,3,17,0.10,,,262
2013-2-5,28,26,23,25,21,16,92,82,69,29.99,29.94,29.91,,,,5,0,,0.03,,,20
2013-2-6,37,30,19,25,18,8,92,66,40,30.38,30.14,29.94,,,,9,2,17,0.00,,,304
2013-2-7,30,23,16,18,11,8,77,59,43,30.53,30.44,30.34,,,,5,1,,0.00,,,20
2013-2-8,30,29,28,28,26,21,92,84,69,30.31,29.97,29.72,,,,9,3,18,0.47,,,24
2013-2-9,30,24,17,27,12,5,92,60,35,30.39,30.10,29.80,,,,16,6,32,0.18,,,348
2013-2-10,39,21,3,19,9,-1,100,63,23,30.51,30.42,30.32,,,,5,2,,0.00,,,266
2013-2-11,41,36,30,39,32,16,100,88,54,30.29,29.93,29.69,,,,8,3,,0.22,,,204
2013-2-12,41,34,28,27,24,22,85,58,49,29.97,29.88,29.75,,,,9,5,18,0.00,,,247
2013-2-13,42,32,21,32,24,18,96,75,47,29.98,29.84,29.72,,,,0,0,,0.02,,,-1
2013-2-14,42,35,28,31,27,23,96,77,51,30.01,29.92,29.73,,,,7,1,,0.00,,,206
2013-2-15,50,38,27,32,28,24,96,68,44,30.02,29.98,29.93,,,,10,2,20,0.09,,,216
2013-2-16,34,30,27,32,20,9,96,66,47,29.99,29.92,29.79,,,,9,4,18,0.06,,,359
2013-2-17,27,22,16,8,3,-2,57,43,34,30.06,29.84,29.74,,,,15,9,36,0.00,,,346
2013-2-18,35,24,14,13,5,-1,56,45,26,30.29,30.21,30.09,,,,15,7,30,0.00,,,312
2013-2-19,39,30,21,36,25,16,97,77,51,30.18,29.92,29.72,,,,7,2,,0.31,,,200
2013-2-20,33,28,23,20,11,7,63,52,43,30.02,29.89,29.76,,,,10,5,23,0.00,,,302
2013-2-21,30,24,19,12,10,8,68,55,46,30.35,30.13,30.01,,,,12,8,25,0.00,,,332
2013-2-22,36,27,18,28,19,11,84,68,50,30.43,30.35,30.27,,,,5,2,,0.00,,,140
2013-2-23,39,36,34,37,34,30,97,92,82,30.25,30.04,29.85,,,,5,1,,0.09,,,35
2013-2-24,43,36,30,35,28,19,96,73,55,30.00,29.87,29.80,,,,8,3,21,0.00,,,340
2013-2-25,41,34,27,27,25,20,89,72,55,30.27,30.16,30.03,,,,7,1,,0.00,,,350
2013-2-26,41,32,24,31,27,21,92,79,62,30.30,30.18,29.90,,,,9,1,17,0.11,,,50
2013-2-27,46,40,35,44,36,32,97,86,73,29.87,29.64,29.52,,,,9,6,23,0.43,,,54
2013-2-28,44,38,33,35,30,24,96,75,47,29.65,29.61,29.57,,,,7,1,,0.00,,,237